sensor_id;sensor_type;location;lat;lon;timestamp;P1;durP1;ratioP1;P2;durP2;ratioP2
31694;SDS011;18289;51.330;4.946;2022-08-27T00:01:51;6.32;;;3.40;;
31694;SDS011;18289;51.330;4.946;2022-08-27T00:04:17;7.10;;;3.72;;
31694;SDS011;18289;51.330;4.946;2022-08-27T00:06:42;5.32;;;3.70;;
31694;SDS011;18289;51.330;4.946;2022-08-27T00:09:08;5.00;;;3.50;;
31694;SDS011;18289;51.330;4.946;2022-08-27T00:11:34;6.07;;;3.50;;
31694;SDS011;18289;51.330;4.946;2022-08-27T00:14:00;5.70;;;3.40;;
31694;SDS011;18289;51.330;4.946;2022-08-27T00:16:26;7.40;;;3.63;;
31694;SDS011;18289;51.330;4.946;2022-08-27T00:18:52;4.32;;;3.00;;
31694;SDS011;18289;51.330;4.946;2022-08-27T00:21:19;5.20;;;2.80;;
31694;SDS011;18289;51.330;4.946;2022-08-27T00:23:45;5.38;;;3.60;;
31694;SDS011;18289;51.330;4.946;2022-08-27T00:26:12;5.55;;;3.65;;
31694;SDS011;18289;51.330;4.946;2022-08-27T00:28:39;5.57;;;3.33;;
31694;SDS011;18289;51.330;4.946;2022-08-27T00:31:05;4.18;;;3.45;;
31694;SDS011;18289;51.330;4.946;2022-08-27T00:33:31;5.97;;;3.95;;
31694;SDS011;18289;51.330;4.946;2022-08-27T00:35:57;5.32;;;3.83;;
31694;SDS011;18289;51.330;4.946;2022-08-27T00:38:23;5.30;;;3.13;;
31694;SDS011;18289;51.330;4.946;2022-08-27T00:40:49;5.47;;;3.78;;
31694;SDS011;18289;51.330;4.946;2022-08-27T00:43:22;6.55;;;3.65;;
31694;SDS011;18289;51.330;4.946;2022-08-27T00:45:50;6.00;;;4.03;;
31694;SDS011;18289;51.330;4.946;2022-08-27T00:48:19;5.40;;;3.10;;
31694;SDS011;18289;51.330;4.946;2022-08-27T00:53:17;9.93;;;4.18;;
31694;SDS011;18289;51.330;4.946;2022-08-27T00:55:53;6.45;;;3.80;;
31694;SDS011;18289;51.330;4.946;2022-08-27T00:58:29;5.85;;;3.60;;
31694;SDS011;18289;51.330;4.946;2022-08-27T01:00:55;8.48;;;3.40;;
31694;SDS011;18289;51.330;4.946;2022-08-27T01:03:22;6.00;;;3.28;;
31694;SDS011;18289;51.330;4.946;2022-08-27T01:05:50;5.55;;;3.55;;
31694;SDS011;18289;51.330;4.946;2022-08-27T01:08:19;8.20;;;3.63;;
31694;SDS011;18289;51.330;4.946;2022-08-27T01:10:49;5.68;;;3.70;;
31694;SDS011;18289;51.330;4.946;2022-08-27T01:13:17;9.93;;;3.90;;
31694;SDS011;18289;51.330;4.946;2022-08-27T01:15:47;5.57;;;3.40;;
31694;SDS011;18289;51.330;4.946;2022-08-27T01:18:13;5.70;;;3.72;;
31694;SDS011;18289;51.330;4.946;2022-08-27T01:23:15;4.47;;;3.17;;
31694;SDS011;18289;51.330;4.946;2022-08-27T01:25:55;6.95;;;3.80;;
31694;SDS011;18289;51.330;4.946;2022-08-27T01:28:23;5.47;;;3.83;;
31694;SDS011;18289;51.330;4.946;2022-08-27T01:30:49;6.88;;;3.70;;
31694;SDS011;18289;51.330;4.946;2022-08-27T01:33:17;7.60;;;3.70;;
31694;SDS011;18289;51.330;4.946;2022-08-27T01:35:46;6.70;;;3.38;;
31694;SDS011;18289;51.330;4.946;2022-08-27T01:38:14;4.97;;;3.95;;
31694;SDS011;18289;51.330;4.946;2022-08-27T01:40:41;4.35;;;3.53;;
31694;SDS011;18289;51.330;4.946;2022-08-27T01:43:07;4.97;;;3.60;;
31694;SDS011;18289;51.330;4.946;2022-08-27T01:45:35;6.70;;;3.60;;
31694;SDS011;18289;51.330;4.946;2022-08-27T01:48:03;8.63;;;4.40;;
31694;SDS011;18289;51.330;4.946;2022-08-27T01:50:32;6.43;;;3.90;;
31694;SDS011;18289;51.330;4.946;2022-08-27T01:53:05;5.95;;;4.00;;
31694;SDS011;18289;51.330;4.946;2022-08-27T01:55:45;10.63;;;3.90;;
31694;SDS011;18289;51.330;4.946;2022-08-27T01:58:12;8.48;;;4.28;;
31694;SDS011;18289;51.330;4.946;2022-08-27T02:00:40;5.50;;;3.40;;
31694;SDS011;18289;51.330;4.946;2022-08-27T02:03:09;6.22;;;3.70;;
31694;SDS011;18289;51.330;4.946;2022-08-27T02:05:36;6.53;;;4.40;;
31694;SDS011;18289;51.330;4.946;2022-08-27T02:08:03;4.32;;;3.75;;
31694;SDS011;18289;51.330;4.946;2022-08-27T02:10:32;7.22;;;3.70;;
31694;SDS011;18289;51.330;4.946;2022-08-27T02:13:00;5.95;;;4.38;;
31694;SDS011;18289;51.330;4.946;2022-08-27T02:15:26;7.88;;;4.13;;
31694;SDS011;18289;51.330;4.946;2022-08-27T02:17:52;6.25;;;4.05;;
31694;SDS011;18289;51.330;4.946;2022-08-27T02:20:19;9.05;;;4.93;;
31694;SDS011;18289;51.330;4.946;2022-08-27T02:22:46;7.72;;;3.80;;
31694;SDS011;18289;51.330;4.946;2022-08-27T02:25:12;6.38;;;3.67;;
31694;SDS011;18289;51.330;4.946;2022-08-27T02:27:41;6.78;;;3.58;;
31694;SDS011;18289;51.330;4.946;2022-08-27T02:30:09;7.05;;;4.10;;
31694;SDS011;18289;51.330;4.946;2022-08-27T02:32:36;5.88;;;3.90;;
31694;SDS011;18289;51.330;4.946;2022-08-27T02:35:02;6.63;;;3.92;;
31694;SDS011;18289;51.330;4.946;2022-08-27T02:37:29;6.70;;;4.20;;
31694;SDS011;18289;51.330;4.946;2022-08-27T02:39:55;7.03;;;4.30;;
31694;SDS011;18289;51.330;4.946;2022-08-27T02:42:21;7.65;;;4.18;;
31694;SDS011;18289;51.330;4.946;2022-08-27T02:44:46;6.00;;;3.58;;
31694;SDS011;18289;51.330;4.946;2022-08-27T02:47:12;7.78;;;3.97;;
31694;SDS011;18289;51.330;4.946;2022-08-27T02:49:39;8.18;;;4.10;;
31694;SDS011;18289;51.330;4.946;2022-08-27T02:52:05;12.05;;;4.82;;
31694;SDS011;18289;51.330;4.946;2022-08-27T02:54:31;5.97;;;3.58;;
31694;SDS011;18289;51.330;4.946;2022-08-27T02:56:57;7.28;;;4.57;;
31694;SDS011;18289;51.330;4.946;2022-08-27T02:59:23;8.63;;;4.00;;
31694;SDS011;18289;51.330;4.946;2022-08-27T03:01:48;4.75;;;3.90;;
31694;SDS011;18289;51.330;4.946;2022-08-27T03:04:15;8.75;;;4.88;;
31694;SDS011;18289;51.330;4.946;2022-08-27T03:06:44;6.22;;;3.92;;
31694;SDS011;18289;51.330;4.946;2022-08-27T03:09:11;6.28;;;4.47;;
31694;SDS011;18289;51.330;4.946;2022-08-27T03:11:36;5.63;;;4.30;;
31694;SDS011;18289;51.330;4.946;2022-08-27T03:14:03;6.35;;;3.72;;
31694;SDS011;18289;51.330;4.946;2022-08-27T03:16:29;5.88;;;4.82;;
31694;SDS011;18289;51.330;4.946;2022-08-27T03:18:58;7.25;;;4.70;;
31694;SDS011;18289;51.330;4.946;2022-08-27T03:21:24;5.45;;;4.60;;
31694;SDS011;18289;51.330;4.946;2022-08-27T03:23:50;7.78;;;4.35;;
31694;SDS011;18289;51.330;4.946;2022-08-27T03:26:17;7.88;;;4.55;;
31694;SDS011;18289;51.330;4.946;2022-08-27T03:28:44;6.45;;;4.30;;
31694;SDS011;18289;51.330;4.946;2022-08-27T03:31:15;7.35;;;4.80;;
31694;SDS011;18289;51.330;4.946;2022-08-27T03:33:51;7.97;;;5.05;;
31694;SDS011;18289;51.330;4.946;2022-08-27T03:36:21;6.72;;;4.93;;
31694;SDS011;18289;51.330;4.946;2022-08-27T03:38:47;7.53;;;4.47;;
31694;SDS011;18289;51.330;4.946;2022-08-27T03:41:13;7.47;;;5.07;;
31694;SDS011;18289;51.330;4.946;2022-08-27T03:43:40;7.32;;;5.05;;
31694;SDS011;18289;51.330;4.946;2022-08-27T03:46:06;10.70;;;5.90;;
31694;SDS011;18289;51.330;4.946;2022-08-27T03:48:33;7.75;;;4.47;;
31694;SDS011;18289;51.330;4.946;2022-08-27T03:51:03;6.57;;;4.88;;
31694;SDS011;18289;51.330;4.946;2022-08-27T03:53:36;9.05;;;4.45;;
31694;SDS011;18289;51.330;4.946;2022-08-27T03:56:03;11.23;;;4.75;;
31694;SDS011;18289;51.330;4.946;2022-08-27T03:58:30;7.43;;;4.00;;
31694;SDS011;18289;51.330;4.946;2022-08-27T04:00:57;5.38;;;3.85;;
31694;SDS011;18289;51.330;4.946;2022-08-27T04:03:23;5.95;;;4.90;;
31694;SDS011;18289;51.330;4.946;2022-08-27T04:05:52;4.32;;;3.70;;
31694;SDS011;18289;51.330;4.946;2022-08-27T04:08:19;9.55;;;4.85;;
31694;SDS011;18289;51.330;4.946;2022-08-27T04:10:45;9.52;;;5.07;;
31694;SDS011;18289;51.330;4.946;2022-08-27T04:13:11;6.82;;;4.13;;
31694;SDS011;18289;51.330;4.946;2022-08-27T04:15:41;6.38;;;4.25;;
31694;SDS011;18289;51.330;4.946;2022-08-27T04:18:10;7.70;;;4.47;;
31694;SDS011;18289;51.330;4.946;2022-08-27T04:20:36;5.18;;;4.07;;
31694;SDS011;18289;51.330;4.946;2022-08-27T04:23:03;7.70;;;4.03;;
31694;SDS011;18289;51.330;4.946;2022-08-27T04:25:29;7.03;;;3.65;;
31694;SDS011;18289;51.330;4.946;2022-08-27T04:27:55;4.88;;;3.63;;
31694;SDS011;18289;51.330;4.946;2022-08-27T04:30:21;5.28;;;3.45;;
31694;SDS011;18289;51.330;4.946;2022-08-27T04:32:47;6.60;;;3.50;;
31694;SDS011;18289;51.330;4.946;2022-08-27T04:35:14;5.72;;;3.45;;
31694;SDS011;18289;51.330;4.946;2022-08-27T04:37:40;8.05;;;3.78;;
31694;SDS011;18289;51.330;4.946;2022-08-27T04:40:06;5.47;;;3.45;;
31694;SDS011;18289;51.330;4.946;2022-08-27T04:42:33;3.80;;;3.40;;
31694;SDS011;18289;51.330;4.946;2022-08-27T04:44:59;5.80;;;3.70;;
31694;SDS011;18289;51.330;4.946;2022-08-27T04:47:25;6.78;;;4.35;;
31694;SDS011;18289;51.330;4.946;2022-08-27T04:49:50;6.68;;;4.22;;
31694;SDS011;18289;51.330;4.946;2022-08-27T04:52:16;5.47;;;3.97;;
31694;SDS011;18289;51.330;4.946;2022-08-27T04:54:42;6.25;;;3.42;;
31694;SDS011;18289;51.330;4.946;2022-08-27T04:57:08;5.85;;;3.45;;
31694;SDS011;18289;51.330;4.946;2022-08-27T04:59:34;6.90;;;4.00;;
31694;SDS011;18289;51.330;4.946;2022-08-27T05:02:01;5.60;;;4.05;;
31694;SDS011;18289;51.330;4.946;2022-08-27T05:04:28;8.85;;;4.50;;
31694;SDS011;18289;51.330;4.946;2022-08-27T05:06:54;5.38;;;3.50;;
31694;SDS011;18289;51.330;4.946;2022-08-27T05:09:20;6.68;;;3.50;;
31694;SDS011;18289;51.330;4.946;2022-08-27T05:11:46;5.65;;;3.53;;
31694;SDS011;18289;51.330;4.946;2022-08-27T05:14:12;4.78;;;3.42;;
31694;SDS011;18289;51.330;4.946;2022-08-27T05:16:39;7.25;;;4.28;;
31694;SDS011;18289;51.330;4.946;2022-08-27T05:19:07;11.52;;;5.53;;
31694;SDS011;18289;51.330;4.946;2022-08-27T05:21:35;5.60;;;3.33;;
31694;SDS011;18289;51.330;4.946;2022-08-27T05:24:03;7.38;;;4.93;;
31694;SDS011;18289;51.330;4.946;2022-08-27T05:26:31;8.40;;;5.30;;
31694;SDS011;18289;51.330;4.946;2022-08-27T05:28:59;6.38;;;4.40;;
31694;SDS011;18289;51.330;4.946;2022-08-27T05:31:26;8.30;;;4.03;;
31694;SDS011;18289;51.330;4.946;2022-08-27T05:33:52;8.50;;;4.35;;
31694;SDS011;18289;51.330;4.946;2022-08-27T05:36:21;7.05;;;4.28;;
31694;SDS011;18289;51.330;4.946;2022-08-27T05:38:52;9.85;;;4.85;;
31694;SDS011;18289;51.330;4.946;2022-08-27T05:41:20;6.85;;;3.67;;
31694;SDS011;18289;51.330;4.946;2022-08-27T05:43:50;8.02;;;4.22;;
31694;SDS011;18289;51.330;4.946;2022-08-27T05:46:17;3.88;;;3.20;;
31694;SDS011;18289;51.330;4.946;2022-08-27T05:48:44;11.43;;;5.93;;
31694;SDS011;18289;51.330;4.946;2022-08-27T05:51:14;17.27;;;5.50;;
31694;SDS011;18289;51.330;4.946;2022-08-27T05:53:48;10.82;;;5.90;;
31694;SDS011;18289;51.330;4.946;2022-08-27T05:56:15;13.25;;;6.00;;
31694;SDS011;18289;51.330;4.946;2022-08-27T05:58:44;14.50;;;6.80;;
31694;SDS011;18289;51.330;4.946;2022-08-27T06:01:32;12.15;;;6.15;;
31694;SDS011;18289;51.330;4.946;2022-08-27T06:04:00;8.48;;;5.30;;
31694;SDS011;18289;51.330;4.946;2022-08-27T06:06:27;7.82;;;4.68;;
31694;SDS011;18289;51.330;4.946;2022-08-27T06:08:53;15.88;;;5.55;;
31694;SDS011;18289;51.330;4.946;2022-08-27T06:11:19;12.68;;;4.85;;
31694;SDS011;18289;51.330;4.946;2022-08-27T06:13:46;10.05;;;5.13;;
31694;SDS011;18289;51.330;4.946;2022-08-27T06:16:13;9.80;;;4.85;;
31694;SDS011;18289;51.330;4.946;2022-08-27T06:18:41;6.38;;;5.30;;
31694;SDS011;18289;51.330;4.946;2022-08-27T06:21:08;9.27;;;5.72;;
31694;SDS011;18289;51.330;4.946;2022-08-27T06:23:34;10.13;;;4.97;;
31694;SDS011;18289;51.330;4.946;2022-08-27T06:26:01;6.85;;;4.50;;
31694;SDS011;18289;51.330;4.946;2022-08-27T06:28:30;6.68;;;4.43;;
31694;SDS011;18289;51.330;4.946;2022-08-27T06:33:36;7.40;;;4.90;;
31694;SDS011;18289;51.330;4.946;2022-08-27T06:36:04;6.63;;;4.70;;
31694;SDS011;18289;51.330;4.946;2022-08-27T06:38:32;9.32;;;4.82;;
31694;SDS011;18289;51.330;4.946;2022-08-27T06:40:58;6.40;;;4.97;;
31694;SDS011;18289;51.330;4.946;2022-08-27T06:43:24;7.15;;;4.75;;
31694;SDS011;18289;51.330;4.946;2022-08-27T06:45:51;7.82;;;4.57;;
31694;SDS011;18289;51.330;4.946;2022-08-27T06:48:17;8.05;;;4.68;;
31694;SDS011;18289;51.330;4.946;2022-08-27T06:50:43;7.75;;;4.35;;
31694;SDS011;18289;51.330;4.946;2022-08-27T06:53:09;7.88;;;3.78;;
31694;SDS011;18289;51.330;4.946;2022-08-27T06:55:43;4.47;;;3.92;;
31694;SDS011;18289;51.330;4.946;2022-08-27T06:58:11;6.13;;;3.72;;
31694;SDS011;18289;51.330;4.946;2022-08-27T07:00:38;8.45;;;3.60;;
31694;SDS011;18289;51.330;4.946;2022-08-27T07:03:04;6.75;;;3.50;;
31694;SDS011;18289;51.330;4.946;2022-08-27T07:05:31;8.82;;;3.97;;
31694;SDS011;18289;51.330;4.946;2022-08-27T07:07:58;9.27;;;4.47;;
31694;SDS011;18289;51.330;4.946;2022-08-27T07:10:24;7.30;;;4.00;;
31694;SDS011;18289;51.330;4.946;2022-08-27T07:12:50;5.18;;;3.53;;
31694;SDS011;18289;51.330;4.946;2022-08-27T07:15:15;7.18;;;3.75;;
31694;SDS011;18289;51.330;4.946;2022-08-27T07:17:42;7.32;;;3.65;;
31694;SDS011;18289;51.330;4.946;2022-08-27T07:20:09;5.65;;;3.30;;
31694;SDS011;18289;51.330;4.946;2022-08-27T07:22:39;5.28;;;2.97;;
31694;SDS011;18289;51.330;4.946;2022-08-27T07:25:07;8.32;;;4.28;;
31694;SDS011;18289;51.330;4.946;2022-08-27T07:27:34;6.05;;;4.07;;
31694;SDS011;18289;51.330;4.946;2022-08-27T07:30:01;8.75;;;3.97;;
31694;SDS011;18289;51.330;4.946;2022-08-27T07:32:28;5.45;;;3.80;;
31694;SDS011;18289;51.330;4.946;2022-08-27T07:34:53;8.13;;;3.70;;
31694;SDS011;18289;51.330;4.946;2022-08-27T07:37:19;7.30;;;3.47;;
31694;SDS011;18289;51.330;4.946;2022-08-27T07:39:46;4.82;;;3.30;;
31694;SDS011;18289;51.330;4.946;2022-08-27T07:42:12;7.30;;;3.22;;
31694;SDS011;18289;51.330;4.946;2022-08-27T07:44:57;9.55;;;3.58;;
31694;SDS011;18289;51.330;4.946;2022-08-27T07:47:22;5.05;;;3.25;;
31694;SDS011;18289;51.330;4.946;2022-08-27T07:49:48;6.60;;;2.97;;
31694;SDS011;18289;51.330;4.946;2022-08-27T07:52:14;7.28;;;2.90;;
31694;SDS011;18289;51.330;4.946;2022-08-27T07:54:41;8.13;;;3.33;;
31694;SDS011;18289;51.330;4.946;2022-08-27T07:57:10;8.65;;;3.42;;
31694;SDS011;18289;51.330;4.946;2022-08-27T07:59:36;4.75;;;2.92;;
31694;SDS011;18289;51.330;4.946;2022-08-27T08:02:02;7.60;;;3.15;;
31694;SDS011;18289;51.330;4.946;2022-08-27T08:04:28;6.15;;;3.40;;
31694;SDS011;18289;51.330;4.946;2022-08-27T08:06:54;6.07;;;3.08;;
31694;SDS011;18289;51.330;4.946;2022-08-27T08:09:20;6.90;;;2.67;;
31694;SDS011;18289;51.330;4.946;2022-08-27T08:11:48;5.22;;;2.70;;
31694;SDS011;18289;51.330;4.946;2022-08-27T08:14:14;3.97;;;2.60;;
31694;SDS011;18289;51.330;4.946;2022-08-27T08:16:40;7.90;;;3.05;;
31694;SDS011;18289;51.330;4.946;2022-08-27T08:19:08;3.30;;;2.50;;
31694;SDS011;18289;51.330;4.946;2022-08-27T08:21:34;6.93;;;2.95;;
31694;SDS011;18289;51.330;4.946;2022-08-27T08:24:00;5.65;;;3.00;;
31694;SDS011;18289;51.330;4.946;2022-08-27T08:26:26;5.63;;;2.65;;
31694;SDS011;18289;51.330;4.946;2022-08-27T08:28:52;5.15;;;2.47;;
31694;SDS011;18289;51.330;4.946;2022-08-27T08:31:18;4.60;;;2.30;;
31694;SDS011;18289;51.330;4.946;2022-08-27T08:33:45;3.42;;;2.40;;
31694;SDS011;18289;51.330;4.946;2022-08-27T08:36:13;4.15;;;2.38;;
31694;SDS011;18289;51.330;4.946;2022-08-27T08:38:40;8.18;;;2.55;;
31694;SDS011;18289;51.330;4.946;2022-08-27T08:41:18;3.75;;;2.28;;
31694;SDS011;18289;51.330;4.946;2022-08-27T08:43:47;4.70;;;2.72;;
31694;SDS011;18289;51.330;4.946;2022-08-27T08:52:15;4.18;;;2.35;;
31694;SDS011;18289;51.330;4.946;2022-08-27T08:55:05;5.15;;;2.40;;
31694;SDS011;18289;51.330;4.946;2022-08-27T09:00:38;4.38;;;2.30;;
31694;SDS011;18289;51.330;4.946;2022-08-27T09:03:06;4.75;;;1.90;;
31694;SDS011;18289;51.330;4.946;2022-08-27T09:05:35;6.50;;;2.63;;
31694;SDS011;18289;51.330;4.946;2022-08-27T09:08:12;5.20;;;2.40;;
31694;SDS011;18289;51.330;4.946;2022-08-27T09:13:59;5.47;;;2.35;;
31694;SDS011;18289;51.330;4.946;2022-08-27T09:16:31;8.00;;;2.47;;
31694;SDS011;18289;51.330;4.946;2022-08-27T09:19:00;2.92;;;2.25;;
31694;SDS011;18289;51.330;4.946;2022-08-27T09:24:29;7.45;;;2.92;;
31694;SDS011;18289;51.330;4.946;2022-08-27T09:27:10;5.82;;;3.05;;
31694;SDS011;18289;51.330;4.946;2022-08-27T09:29:45;3.58;;;2.50;;
31694;SDS011;18289;51.330;4.946;2022-08-27T09:32:27;6.18;;;2.35;;
31694;SDS011;18289;51.330;4.946;2022-08-27T09:34:58;4.85;;;2.50;;
31694;SDS011;18289;51.330;4.946;2022-08-27T09:37:30;7.13;;;2.88;;
31694;SDS011;18289;51.330;4.946;2022-08-27T09:40:21;4.88;;;2.55;;
31694;SDS011;18289;51.330;4.946;2022-08-27T09:42:51;8.57;;;3.00;;
31694;SDS011;18289;51.330;4.946;2022-08-27T09:45:22;5.00;;;2.65;;
31694;SDS011;18289;51.330;4.946;2022-08-27T09:47:52;5.80;;;2.58;;
31694;SDS011;18289;51.330;4.946;2022-08-27T09:50:36;6.35;;;2.50;;
31694;SDS011;18289;51.330;4.946;2022-08-27T09:53:17;4.43;;;2.58;;
31694;SDS011;18289;51.330;4.946;2022-08-27T09:56:01;4.53;;;2.08;;
31694;SDS011;18289;51.330;4.946;2022-08-27T09:58:29;6.03;;;2.70;;
31694;SDS011;18289;51.330;4.946;2022-08-27T10:03:29;6.45;;;2.90;;
31694;SDS011;18289;51.330;4.946;2022-08-27T10:05:55;3.88;;;2.30;;
31694;SDS011;18289;51.330;4.946;2022-08-27T10:11:16;4.95;;;2.63;;
31694;SDS011;18289;51.330;4.946;2022-08-27T10:22:09;5.03;;;2.35;;
31694;SDS011;18289;51.330;4.946;2022-08-27T10:25:02;6.07;;;2.92;;
31694;SDS011;18289;51.330;4.946;2022-08-27T10:30:37;5.07;;;2.90;;
31694;SDS011;18289;51.330;4.946;2022-08-27T10:33:18;3.53;;;2.70;;
31694;SDS011;18289;51.330;4.946;2022-08-27T10:35:49;4.38;;;2.90;;
31694;SDS011;18289;51.330;4.946;2022-08-27T10:38:39;7.32;;;2.83;;
31694;SDS011;18289;51.330;4.946;2022-08-27T10:41:16;3.47;;;2.75;;
31694;SDS011;18289;51.330;4.946;2022-08-27T10:43:55;6.53;;;2.95;;
31694;SDS011;18289;51.330;4.946;2022-08-27T10:49:26;4.50;;;2.80;;
31694;SDS011;18289;51.330;4.946;2022-08-27T10:52:14;3.58;;;2.95;;
31694;SDS011;18289;51.330;4.946;2022-08-27T10:54:51;5.65;;;3.40;;
31694;SDS011;18289;51.330;4.946;2022-08-27T11:03:38;4.70;;;2.72;;
31694;SDS011;18289;51.330;4.946;2022-08-27T11:06:34;4.05;;;2.72;;
31694;SDS011;18289;51.330;4.946;2022-08-27T11:09:05;4.03;;;2.38;;
31694;SDS011;18289;51.330;4.946;2022-08-27T11:15:12;7.03;;;3.20;;
31694;SDS011;18289;51.330;4.946;2022-08-27T11:20:10;5.57;;;2.58;;
31694;SDS011;18289;51.330;4.946;2022-08-27T11:22:51;6.35;;;2.72;;
31694;SDS011;18289;51.330;4.946;2022-08-27T11:25:37;3.75;;;2.58;;
31694;SDS011;18289;51.330;4.946;2022-08-27T11:28:25;5.18;;;2.60;;
31694;SDS011;18289;51.330;4.946;2022-08-27T11:30:59;5.45;;;3.20;;
31694;SDS011;18289;51.330;4.946;2022-08-27T11:45:06;3.50;;;2.38;;
31694;SDS011;18289;51.330;4.946;2022-08-27T11:47:51;3.97;;;3.15;;
31694;SDS011;18289;51.330;4.946;2022-08-27T11:50:20;4.93;;;2.67;;
31694;SDS011;18289;51.330;4.946;2022-08-27T11:58:23;3.20;;;2.00;;
31694;SDS011;18289;51.330;4.946;2022-08-27T12:00:54;3.17;;;2.10;;
31694;SDS011;18289;51.330;4.946;2022-08-27T12:08:32;4.22;;;2.28;;
31694;SDS011;18289;51.330;4.946;2022-08-27T12:13:48;5.63;;;2.60;;
31694;SDS011;18289;51.330;4.946;2022-08-27T12:16:34;4.40;;;2.72;;
31694;SDS011;18289;51.330;4.946;2022-08-27T12:19:19;3.95;;;2.80;;
31694;SDS011;18289;51.330;4.946;2022-08-27T12:24:46;3.40;;;3.10;;
31694;SDS011;18289;51.330;4.946;2022-08-27T12:29:49;3.08;;;2.40;;
31694;SDS011;18289;51.330;4.946;2022-08-27T12:37:42;4.53;;;2.60;;
31694;SDS011;18289;51.330;4.946;2022-08-27T12:40:12;4.72;;;2.47;;
31694;SDS011;18289;51.330;4.946;2022-08-27T12:43:03;3.53;;;2.25;;
31694;SDS011;18289;51.330;4.946;2022-08-27T12:45:40;3.95;;;2.25;;
31694;SDS011;18289;51.330;4.946;2022-08-27T12:48:58;3.42;;;2.40;;
31694;SDS011;18289;51.330;4.946;2022-08-27T12:51:31;5.53;;;2.53;;
31694;SDS011;18289;51.330;4.946;2022-08-27T13:05:22;4.50;;;2.70;;
31694;SDS011;18289;51.330;4.946;2022-08-27T13:07:49;4.45;;;2.55;;
31694;SDS011;18289;51.330;4.946;2022-08-27T13:10:18;3.63;;;2.38;;
31694;SDS011;18289;51.330;4.946;2022-08-27T13:13:02;4.68;;;2.55;;
31694;SDS011;18289;51.330;4.946;2022-08-27T13:15:30;3.28;;;2.20;;
31694;SDS011;18289;51.330;4.946;2022-08-27T13:17:58;2.63;;;2.20;;
31694;SDS011;18289;51.330;4.946;2022-08-27T13:20:29;2.70;;;2.30;;
31694;SDS011;18289;51.330;4.946;2022-08-27T13:22:56;2.53;;;1.92;;
31694;SDS011;18289;51.330;4.946;2022-08-27T13:27:51;5.88;;;2.33;;
31694;SDS011;18289;51.330;4.946;2022-08-27T13:30:23;2.92;;;2.15;;
31694;SDS011;18289;51.330;4.946;2022-08-27T13:32:52;3.17;;;2.15;;
31694;SDS011;18289;51.330;4.946;2022-08-27T13:35:18;2.80;;;2.33;;
31694;SDS011;18289;51.330;4.946;2022-08-27T13:37:49;2.25;;;1.80;;
31694;SDS011;18289;51.330;4.946;2022-08-27T13:40:28;3.70;;;1.95;;
31694;SDS011;18289;51.330;4.946;2022-08-27T13:43:15;3.85;;;1.85;;
31694;SDS011;18289;51.330;4.946;2022-08-27T13:45:46;5.07;;;1.83;;
31694;SDS011;18289;51.330;4.946;2022-08-27T13:48:13;4.38;;;2.05;;
31694;SDS011;18289;51.330;4.946;2022-08-27T13:50:46;2.05;;;1.70;;
31694;SDS011;18289;51.330;4.946;2022-08-27T13:53:18;2.67;;;1.70;;
31694;SDS011;18289;51.330;4.946;2022-08-27T13:56:06;3.70;;;2.00;;
31694;SDS011;18289;51.330;4.946;2022-08-27T13:58:32;5.20;;;1.75;;
31694;SDS011;18289;51.330;4.946;2022-08-27T14:01:10;3.05;;;1.80;;
31694;SDS011;18289;51.330;4.946;2022-08-27T14:06:43;2.55;;;2.00;;
31694;SDS011;18289;51.330;4.946;2022-08-27T14:09:18;2.63;;;1.80;;
31694;SDS011;18289;51.330;4.946;2022-08-27T14:14:37;2.55;;;2.33;;
31694;SDS011;18289;51.330;4.946;2022-08-27T14:17:05;4.47;;;1.70;;
31694;SDS011;18289;51.330;4.946;2022-08-27T14:22:10;5.15;;;1.85;;
31694;SDS011;18289;51.330;4.946;2022-08-27T14:24:35;3.88;;;2.55;;
31694;SDS011;18289;51.330;4.946;2022-08-27T14:27:07;2.63;;;1.75;;
31694;SDS011;18289;51.330;4.946;2022-08-27T14:29:34;3.60;;;1.85;;
31694;SDS011;18289;51.330;4.946;2022-08-27T14:32:00;3.50;;;2.30;;
31694;SDS011;18289;51.330;4.946;2022-08-27T14:34:26;2.80;;;2.35;;
31694;SDS011;18289;51.330;4.946;2022-08-27T14:36:52;6.38;;;2.33;;
31694;SDS011;18289;51.330;4.946;2022-08-27T14:39:18;2.65;;;1.98;;
31694;SDS011;18289;51.330;4.946;2022-08-27T14:41:44;2.92;;;2.13;;
31694;SDS011;18289;51.330;4.946;2022-08-27T14:44:10;5.15;;;2.05;;
31694;SDS011;18289;51.330;4.946;2022-08-27T14:46:36;3.30;;;1.88;;
31694;SDS011;18289;51.330;4.946;2022-08-27T14:49:06;3.13;;;1.92;;
31694;SDS011;18289;51.330;4.946;2022-08-27T14:51:49;3.90;;;2.10;;
31694;SDS011;18289;51.330;4.946;2022-08-27T14:54:15;6.85;;;2.15;;
31694;SDS011;18289;51.330;4.946;2022-08-27T14:56:41;5.18;;;2.25;;
31694;SDS011;18289;51.330;4.946;2022-08-27T14:59:06;2.78;;;2.20;;
31694;SDS011;18289;51.330;4.946;2022-08-27T15:01:32;3.60;;;2.03;;
31694;SDS011;18289;51.330;4.946;2022-08-27T15:04:01;4.68;;;2.20;;
31694;SDS011;18289;51.330;4.946;2022-08-27T15:06:27;4.55;;;2.38;;
31694;SDS011;18289;51.330;4.946;2022-08-27T15:08:53;2.58;;;2.03;;
31694;SDS011;18289;51.330;4.946;2022-08-27T15:11:23;2.78;;;1.80;;
31694;SDS011;18289;51.330;4.946;2022-08-27T15:13:51;6.50;;;2.55;;
31694;SDS011;18289;51.330;4.946;2022-08-27T15:16:34;2.35;;;2.10;;
31694;SDS011;18289;51.330;4.946;2022-08-27T15:19:03;5.43;;;2.45;;
31694;SDS011;18289;51.330;4.946;2022-08-27T15:21:31;2.72;;;2.28;;
31694;SDS011;18289;51.330;4.946;2022-08-27T15:24:01;3.75;;;2.22;;
31694;SDS011;18289;51.330;4.946;2022-08-27T15:26:29;3.72;;;2.35;;
31694;SDS011;18289;51.330;4.946;2022-08-27T15:28:56;3.13;;;2.20;;
31694;SDS011;18289;51.330;4.946;2022-08-27T15:31:22;5.35;;;2.50;;
31694;SDS011;18289;51.330;4.946;2022-08-27T15:33:48;4.35;;;2.20;;
31694;SDS011;18289;51.330;4.946;2022-08-27T15:36:14;3.28;;;1.90;;
31694;SDS011;18289;51.330;4.946;2022-08-27T15:38:39;3.67;;;2.15;;
31694;SDS011;18289;51.330;4.946;2022-08-27T15:41:05;4.40;;;2.25;;
31694;SDS011;18289;51.330;4.946;2022-08-27T15:43:34;3.23;;;2.07;;
31694;SDS011;18289;51.330;4.946;2022-08-27T15:46:00;3.33;;;1.98;;
31694;SDS011;18289;51.330;4.946;2022-08-27T15:48:26;4.03;;;2.25;;
31694;SDS011;18289;51.330;4.946;2022-08-27T15:50:52;3.28;;;1.67;;
31694;SDS011;18289;51.330;4.946;2022-08-27T15:53:18;3.75;;;2.25;;
31694;SDS011;18289;51.330;4.946;2022-08-27T15:55:48;5.30;;;2.38;;
31694;SDS011;18289;51.330;4.946;2022-08-27T15:58:14;8.23;;;2.10;;
31694;SDS011;18289;51.330;4.946;2022-08-27T16:00:41;3.75;;;2.08;;
31694;SDS011;18289;51.330;4.946;2022-08-27T16:03:09;4.68;;;2.55;;
31694;SDS011;18289;51.330;4.946;2022-08-27T16:05:38;3.88;;;2.78;;
31694;SDS011;18289;51.330;4.946;2022-08-27T16:08:06;3.00;;;1.90;;
31694;SDS011;18289;51.330;4.946;2022-08-27T16:10:33;3.63;;;1.88;;
31694;SDS011;18289;51.330;4.946;2022-08-27T16:12:59;3.50;;;1.75;;
31694;SDS011;18289;51.330;4.946;2022-08-27T16:15:25;4.28;;;2.20;;
31694;SDS011;18289;51.330;4.946;2022-08-27T16:17:51;3.47;;;1.83;;
31694;SDS011;18289;51.330;4.946;2022-08-27T16:20:22;3.50;;;2.25;;
31694;SDS011;18289;51.330;4.946;2022-08-27T16:22:49;3.33;;;2.05;;
31694;SDS011;18289;51.330;4.946;2022-08-27T16:25:15;3.30;;;1.92;;
31694;SDS011;18289;51.330;4.946;2022-08-27T16:27:44;3.53;;;1.90;;
31694;SDS011;18289;51.330;4.946;2022-08-27T16:30:11;7.97;;;3.00;;
31694;SDS011;18289;51.330;4.946;2022-08-27T16:32:37;4.20;;;2.35;;
31694;SDS011;18289;51.330;4.946;2022-08-27T16:35:03;3.13;;;2.00;;
31694;SDS011;18289;51.330;4.946;2022-08-27T16:37:30;5.70;;;2.00;;
31694;SDS011;18289;51.330;4.946;2022-08-27T16:39:56;2.53;;;2.00;;
31694;SDS011;18289;51.330;4.946;2022-08-27T16:42:22;5.47;;;2.40;;
31694;SDS011;18289;51.330;4.946;2022-08-27T16:44:48;6.13;;;2.20;;
31694;SDS011;18289;51.330;4.946;2022-08-27T16:47:14;4.30;;;2.25;;
31694;SDS011;18289;51.330;4.946;2022-08-27T16:49:40;2.40;;;1.95;;
31694;SDS011;18289;51.330;4.946;2022-08-27T16:52:24;5.28;;;2.03;;
31694;SDS011;18289;51.330;4.946;2022-08-27T16:54:50;4.75;;;2.22;;